createdAt,value
2024-05-09T00:00:30.384Z,8.21
2024-05-09T00:03:02.429Z,8.18
2024-05-09T00:05:29.156Z,8.18
2024-05-09T00:07:55.809Z,8.18
2024-05-09T00:10:29.131Z,8.19
2024-05-09T00:13:02.454Z,8.11
2024-05-09T00:15:28.967Z,8.12
2024-05-09T00:17:55.629Z,8.03
2024-05-09T00:20:28.396Z,7.92
2024-05-09T00:23:01.951Z,7.76
2024-05-09T00:25:28.490Z,7.47
2024-05-09T00:27:55.002Z,7.55
2024-05-09T00:30:30.630Z,7.66
2024-05-09T00:33:00.846Z,7.66
2024-05-09T00:35:27.657Z,7.05
2024-05-09T00:37:54.302Z,6.98
2024-05-09T00:40:30.788Z,7.32
2024-05-09T00:43:07.213Z,7.45
2024-05-09T00:45:34.193Z,7.51
2024-05-09T00:48:04.621Z,7.54
2024-05-09T00:50:36.398Z,7.48
2024-05-09T00:53:05.326Z,7.13
2024-05-09T00:55:31.881Z,6.74
2024-05-09T00:57:58.377Z,7.07
2024-05-09T01:03:07.354Z,7.40
2024-05-09T01:05:34.292Z,7.38
2024-05-09T01:08:01.168Z,6.45
2024-05-09T01:10:33.813Z,5.70
2024-05-09T01:13:02.669Z,5.90
2024-05-09T01:15:29.240Z,6.03
2024-05-09T01:17:56.293Z,6.32
2024-05-09T01:20:31.740Z,6.66
2024-05-09T01:23:06.632Z,6.95
2024-05-09T01:25:33.189Z,7.09
2024-05-09T01:27:59.736Z,7.08
2024-05-09T01:30:33.352Z,7.04
2024-05-09T01:33:02.398Z,6.99
2024-05-09T01:35:29.149Z,7.05
2024-05-09T01:37:55.764Z,7.03
2024-05-09T01:40:29.117Z,7.09
2024-05-09T01:43:03.126Z,7.09
2024-05-09T01:45:29.651Z,6.97
2024-05-09T01:47:56.366Z,6.52
2024-05-09T01:50:34.184Z,6.11
2024-05-09T01:53:05.501Z,5.97
2024-05-09T01:55:32.092Z,6.37
2024-05-09T01:57:58.599Z,6.55
2024-05-09T02:00:34.157Z,6.54
2024-05-09T02:03:13.883Z,6.74
2024-05-09T02:05:43.402Z,6.79
2024-05-09T02:08:17.754Z,6.80
2024-05-09T02:10:45.135Z,6.71
2024-05-09T02:13:12.324Z,6.63
2024-05-09T02:15:38.852Z,6.31
2024-05-09T02:18:05.657Z,5.54
2024-05-09T02:20:36.263Z,5.32
2024-05-09T02:23:04.628Z,5.75
2024-05-09T02:25:31.720Z,5.97
2024-05-09T02:27:58.261Z,6.17
2024-05-09T02:30:34.901Z,6.14
2024-05-09T02:33:06.327Z,6.19
2024-05-09T02:35:33.065Z,6.34
2024-05-09T02:37:59.960Z,6.40
2024-05-09T02:40:35.501Z,6.33
2024-05-09T02:43:04.780Z,6.42
2024-05-09T02:45:31.336Z,6.50
2024-05-09T02:47:58.255Z,6.52
2024-05-09T02:50:33.529Z,6.54
2024-05-09T02:53:04.799Z,6.53
2024-05-09T02:55:31.370Z,6.57
2024-05-09T02:57:57.866Z,6.37
2024-05-09T03:00:33.658Z,6.49
2024-05-09T03:03:05.237Z,6.53
2024-05-09T03:05:32.036Z,6.33
2024-05-09T03:07:58.709Z,6.15
2024-05-09T03:10:28.680Z,6.15
2024-05-09T03:12:55.850Z,6.28
2024-05-09T03:15:22.454Z,6.10
2024-05-09T03:17:49.201Z,6.13
2024-05-09T03:20:23.268Z,6.23
2024-05-09T03:22:52.777Z,6.31
2024-05-09T03:25:20.630Z,6.37
2024-05-09T03:27:47.918Z,6.42
2024-05-09T03:30:26.035Z,6.15
2024-05-09T03:33:01.079Z,5.67
2024-05-09T03:35:27.891Z,5.56
2024-05-09T03:37:54.521Z,5.32
2024-05-09T03:40:26.131Z,5.03
2024-05-09T03:42:53.303Z,5.31
2024-05-09T03:45:19.801Z,5.19
2024-05-09T03:47:46.479Z,5.64
2024-05-09T03:50:21.953Z,5.91
2024-05-09T03:52:52.566Z,6.13
2024-05-09T03:55:19.167Z,6.19
2024-05-09T03:57:45.680Z,6.20
2024-05-09T04:00:18.123Z,5.93
2024-05-09T04:02:52.741Z,5.87
2024-05-09T04:05:19.392Z,5.41
2024-05-09T04:07:46.063Z,5.31
2024-05-09T04:10:21.036Z,5.68
2024-05-09T04:12:54.387Z,5.79
2024-05-09T04:15:20.897Z,5.99
2024-05-09T04:17:47.702Z,5.66
2024-05-09T04:20:24.212Z,5.67
2024-05-09T04:22:59.808Z,6.05
2024-05-09T04:25:26.350Z,6.26
2024-05-09T04:27:52.880Z,6.44
2024-05-09T04:30:26.297Z,6.56
2024-05-09T04:33:02.195Z,6.70
2024-05-09T04:35:28.852Z,6.82
2024-05-09T04:37:55.491Z,6.98
2024-05-09T04:40:28.551Z,7.17
2024-05-09T04:43:00.127Z,7.39
2024-05-09T04:45:26.625Z,7.31
2024-05-09T04:47:54.052Z,7.21
2024-05-09T04:50:29.382Z,7.24
2024-05-09T04:53:02.193Z,7.44
2024-05-09T04:55:28.735Z,7.91
2024-05-09T04:57:55.247Z,8.24
2024-05-09T05:00:28.869Z,8.79
2024-05-09T05:03:02.068Z,9.19
2024-05-09T05:05:28.793Z,9.69
2024-05-09T05:07:55.411Z,10.11
2024-05-09T05:10:29.494Z,10.17
2024-05-09T05:13:01.883Z,10.50
2024-05-09T05:15:28.404Z,11.07
2024-05-09T05:17:55.130Z,11.68
2024-05-09T05:20:27.864Z,12.23
2024-05-09T05:22:59.759Z,12.55
2024-05-09T05:25:26.329Z,12.71
2024-05-09T05:27:52.844Z,13.28
2024-05-09T05:30:25.007Z,13.56
2024-05-09T05:32:55.644Z,13.85
2024-05-09T05:35:24.856Z,15.02
2024-05-09T05:37:51.433Z,15.55
2024-05-09T05:40:27.879Z,16.07
2024-05-09T05:43:01.600Z,16.57
2024-05-09T05:45:28.125Z,16.87
2024-05-09T05:47:54.978Z,17.18
2024-05-09T05:50:27.893Z,17.30
2024-05-09T05:53:01.730Z,17.75
2024-05-09T05:55:28.431Z,17.56
2024-05-09T05:57:54.952Z,18.02
2024-05-09T06:00:29.409Z,18.01
2024-05-09T06:03:02.287Z,18.12
2024-05-09T06:05:29.105Z,18.14
2024-05-09T06:07:55.799Z,18.49
2024-05-09T06:10:26.315Z,18.35
2024-05-09T06:13:01.293Z,18.11
2024-05-09T06:15:27.836Z,17.86
2024-05-09T06:17:54.609Z,17.99
2024-05-09T06:20:27.812Z,18.44
2024-05-09T06:23:01.587Z,17.97
2024-05-09T06:25:28.189Z,17.96
2024-05-09T06:27:54.698Z,18.66
2024-05-09T06:30:26.341Z,18.63
2024-05-09T06:33:01.800Z,17.66
2024-05-09T06:35:28.586Z,17.82
2024-05-09T06:37:55.260Z,17.44
2024-05-09T06:40:25.859Z,17.93
2024-05-09T06:43:00.612Z,18.02
2024-05-09T06:45:27.136Z,16.72
2024-05-09T06:47:53.819Z,16.90
2024-05-09T06:50:24.258Z,17.05
2024-05-09T06:52:54.491Z,17.59
2024-05-09T06:55:21.015Z,17.95
2024-05-09T06:57:47.555Z,17.95
2024-05-09T07:00:22.707Z,17.21
2024-05-09T07:02:57.331Z,17.85
2024-05-09T07:05:24.599Z,17.92
2024-05-09T07:07:51.262Z,17.73
2024-05-09T07:10:25.594Z,17.17
2024-05-09T07:12:58.945Z,17.05
2024-05-09T07:15:25.700Z,17.17
2024-05-09T07:17:52.346Z,18.12
2024-05-09T07:20:27.646Z,18.05
2024-05-09T07:23:00.754Z,17.37
2024-05-09T07:25:27.376Z,17.94
2024-05-09T07:27:53.969Z,18.72
2024-05-09T07:30:27.510Z,18.48
2024-05-09T07:32:59.756Z,18.20
2024-05-09T07:35:26.716Z,18.46
2024-05-09T07:37:53.466Z,18.04
2024-05-09T07:40:28.216Z,18.55
2024-05-09T07:42:59.927Z,18.92
2024-05-09T07:45:44.459Z,18.84
2024-05-09T07:49:44.742Z,18.92
2024-05-09T07:53:00.960Z,18.95
2024-05-09T07:53:49.725Z,18.70
2024-05-09T07:56:21.063Z,18.53
2024-05-09T07:58:49.978Z,17.96
2024-05-09T08:01:16.561Z,18.23
2024-05-09T08:03:43.284Z,18.53
2024-05-09T08:06:09.880Z,18.43
2024-05-09T08:08:36.472Z,18.62
2024-05-09T08:11:03.138Z,18.58
2024-05-09T08:13:29.864Z,18.88
2024-05-09T08:15:56.474Z,19.50
2024-05-09T08:18:23.152Z,19.31
2024-05-09T08:20:49.703Z,18.85
2024-05-09T08:23:16.214Z,18.84
2024-05-09T08:25:42.713Z,19.01
2024-05-09T08:28:10.912Z,18.63
2024-05-09T08:30:38.312Z,18.62
2024-05-09T08:33:06.523Z,18.02
2024-05-09T08:35:34.046Z,18.47
2024-05-09T08:38:02.817Z,18.97
2024-05-09T08:40:34.594Z,19.30
2024-05-09T08:43:03.243Z,18.99
2024-05-09T08:45:30.197Z,18.94
2024-05-09T08:47:56.962Z,19.51
2024-05-09T08:50:31.784Z,19.17
2024-05-09T08:53:04.605Z,18.92
2024-05-09T08:55:31.119Z,19.24
2024-05-09T08:57:57.628Z,19.42
2024-05-09T09:00:33.744Z,19.31
2024-05-09T09:03:03.681Z,19.33
2024-05-09T09:05:31.080Z,19.38
2024-05-09T09:07:57.777Z,19.94
2024-05-09T09:10:29.928Z,20.25
2024-05-09T09:12:59.051Z,19.80
2024-05-09T09:15:25.603Z,19.91
2024-05-09T09:17:58.323Z,19.64
2024-05-09T09:20:35.404Z,19.64
2024-05-09T09:23:03.349Z,19.15
2024-05-09T09:25:29.909Z,19.21
2024-05-09T09:27:57.814Z,19.54
2024-05-09T09:30:34.607Z,19.35
2024-05-09T09:33:04.423Z,19.43
2024-05-09T09:35:31.134Z,19.34
2024-05-09T09:37:57.692Z,19.47
2024-05-09T09:40:32.121Z,19.67
2024-05-09T09:43:00.854Z,19.97
2024-05-09T09:45:31.328Z,19.44
2024-05-09T09:47:57.995Z,19.50
2024-05-09T09:50:31.774Z,18.84
2024-05-09T09:53:01.106Z,18.94
2024-05-09T09:55:27.674Z,18.96
2024-05-09T09:57:55.575Z,18.45
2024-05-09T10:00:27.236Z,18.29
2024-05-09T10:02:58.977Z,18.53
2024-05-09T10:05:25.783Z,19.58
2024-05-09T10:07:52.588Z,19.05
2024-05-09T10:10:31.714Z,19.77
2024-05-09T10:13:08.881Z,20.23
2024-05-09T10:15:54.694Z,20.38
2024-05-09T10:18:21.429Z,19.87
2024-05-09T10:20:48.116Z,19.40
2024-05-09T10:23:32.850Z,19.57
2024-05-09T10:26:03.587Z,20.45
2024-05-09T10:28:33.560Z,20.11
2024-05-09T10:31:10.292Z,20.72
2024-05-09T10:33:55.704Z,20.45
2024-05-09T10:36:25.733Z,20.27
2024-05-09T10:38:53.565Z,20.82
2024-05-09T10:41:20.801Z,21.01
2024-05-09T10:43:47.522Z,20.69
2024-05-09T10:46:14.316Z,21.11
2024-05-09T10:48:42.287Z,20.97
2024-05-09T10:51:08.915Z,20.90
2024-05-09T10:53:42.079Z,20.69
2024-05-09T10:56:08.608Z,19.77
2024-05-09T10:58:35.139Z,20.29
2024-05-09T11:01:06.215Z,20.71
2024-05-09T11:03:33.826Z,20.30
2024-05-09T11:06:00.537Z,20.84
2024-05-09T11:08:27.105Z,19.78
2024-05-09T11:10:54.269Z,20.13
2024-05-09T11:13:34.475Z,20.60
2024-05-09T11:16:01.097Z,20.16
2024-05-09T11:18:30.855Z,20.23
2024-05-09T11:21:00.403Z,20.73
2024-05-09T11:23:27.332Z,20.36
2024-05-09T11:25:54.770Z,20.69
2024-05-09T11:28:21.908Z,20.70
2024-05-09T11:30:48.829Z,20.46
2024-05-09T11:33:18.259Z,20.17
2024-05-09T11:35:45.764Z,20.73
2024-05-09T11:38:12.439Z,20.48
2024-05-09T11:40:39.004Z,20.92
2024-05-09T11:43:05.888Z,21.10
2024-05-09T11:45:32.719Z,20.72
2024-05-09T11:47:59.412Z,21.07
2024-05-09T11:50:30.129Z,21.13
2024-05-09T11:53:01.405Z,20.77
2024-05-09T11:55:28.599Z,20.52
2024-05-09T11:57:55.358Z,20.30
2024-05-09T12:00:29.579Z,20.32
2024-05-09T12:03:03.011Z,20.70
2024-05-09T12:05:29.763Z,21.12
2024-05-09T12:07:56.360Z,21.18
2024-05-09T12:10:31.981Z,21.24
2024-05-09T12:13:00.881Z,20.73
2024-05-09T12:15:27.410Z,20.40
2024-05-09T12:17:54.652Z,20.56
2024-05-09T12:20:28.774Z,20.14
2024-05-09T12:23:02.240Z,19.99
2024-05-09T12:25:28.746Z,20.24
2024-05-09T12:27:55.328Z,20.29
2024-05-09T12:30:32.596Z,20.98
2024-05-09T12:33:04.126Z,21.06
2024-05-09T12:35:30.840Z,20.94
2024-05-09T12:37:57.350Z,21.26
2024-05-09T12:40:34.142Z,20.43
2024-05-09T12:43:04.105Z,20.15
2024-05-09T12:45:30.810Z,20.20
2024-05-09T12:47:57.500Z,20.66
2024-05-09T12:50:31.071Z,20.79
2024-05-09T12:52:59.580Z,20.95
2024-05-09T12:55:26.949Z,20.01
2024-05-09T12:57:53.605Z,20.02
2024-05-09T13:00:27.401Z,20.01
2024-05-09T13:02:58.235Z,19.68
2024-05-09T13:05:24.966Z,20.11
2024-05-09T13:07:51.630Z,20.04
2024-05-09T13:10:28.622Z,19.79
2024-05-09T13:12:58.925Z,19.78
2024-05-09T13:15:25.457Z,19.76
2024-05-09T13:17:51.987Z,19.88
2024-05-09T13:20:26.213Z,20.42
2024-05-09T13:23:00.656Z,19.84
2024-05-09T13:25:27.151Z,20.07
2024-05-09T13:27:53.710Z,19.97
2024-05-09T13:30:28.818Z,19.92
2024-05-09T13:33:02.135Z,20.14
2024-05-09T13:35:28.823Z,19.90
2024-05-09T13:37:55.770Z,19.93
2024-05-09T13:40:30.042Z,19.87
2024-05-09T13:43:00.688Z,19.67
2024-05-09T13:45:27.247Z,20.02
2024-05-09T13:47:54.216Z,19.67
2024-05-09T13:50:30.497Z,20.02
2024-05-09T13:53:00.676Z,19.97
2024-05-09T13:55:27.219Z,19.66
2024-05-09T13:57:53.948Z,19.85
2024-05-09T14:02:50.066Z,19.43
2024-05-09T14:05:16.952Z,19.27
2024-05-09T14:07:43.925Z,19.37
2024-05-09T14:10:19.763Z,19.06
2024-05-09T14:12:52.135Z,19.20
2024-05-09T14:15:18.673Z,19.19
2024-05-09T14:17:45.753Z,19.23
2024-05-09T14:20:16.434Z,19.30
2024-05-09T14:22:46.405Z,19.38
2024-05-09T14:25:13.161Z,19.37
2024-05-09T14:27:39.845Z,19.46
2024-05-09T14:30:11.803Z,19.62
2024-05-09T14:32:41.601Z,19.70
2024-05-09T14:35:08.248Z,19.74
2024-05-09T14:37:36.292Z,19.85
2024-05-09T14:40:06.884Z,19.54
2024-05-09T14:42:33.792Z,19.24
2024-05-09T14:45:00.363Z,19.33
2024-05-09T14:47:26.968Z,19.43
2024-05-09T14:49:53.714Z,19.27
2024-05-09T14:52:20.360Z,19.37
2024-05-09T14:54:47.900Z,19.32
2024-05-09T14:57:15.697Z,19.16
2024-05-09T14:59:42.201Z,19.17
2024-05-09T15:02:08.864Z,19.45
2024-05-09T15:04:35.521Z,19.46
2024-05-09T15:07:02.103Z,19.57
2024-05-09T15:09:34.724Z,19.22
2024-05-09T15:12:01.367Z,19.48
2024-05-09T15:14:27.869Z,19.53
2024-05-09T15:16:54.370Z,19.71
2024-05-09T15:19:20.986Z,19.43
2024-05-09T15:21:47.602Z,19.58
2024-05-09T15:24:14.121Z,19.48
2024-05-09T15:26:40.628Z,19.55
2024-05-09T15:29:07.152Z,19.33
2024-05-09T15:31:33.979Z,19.30
2024-05-09T15:34:00.738Z,19.00
2024-05-09T15:36:27.301Z,18.85
2024-05-09T15:38:53.910Z,18.73
2024-05-09T15:41:20.435Z,18.78
2024-05-09T15:43:46.930Z,18.66
2024-05-09T15:46:13.518Z,18.58
2024-05-09T15:48:42.623Z,18.49
2024-05-09T15:51:10.797Z,18.49
2024-05-09T15:53:37.317Z,18.56
2024-05-09T15:56:03.943Z,18.40
2024-05-09T15:58:30.474Z,18.54
2024-05-09T16:00:57.187Z,18.39
2024-05-09T16:03:23.832Z,18.51
2024-05-09T16:05:50.604Z,18.30
2024-05-09T16:08:17.192Z,18.28
2024-05-09T16:10:44.898Z,18.29
2024-05-09T16:13:12.575Z,18.22
2024-05-09T16:15:39.318Z,18.17
2024-05-09T16:18:06.165Z,18.09
2024-05-09T16:20:39.059Z,18.08
2024-05-09T16:23:08.764Z,18.26
2024-05-09T16:25:35.690Z,18.26
2024-05-09T16:28:03.786Z,18.13
2024-05-09T16:30:35.341Z,18.17
2024-05-09T16:33:04.217Z,17.87
2024-05-09T16:35:31.495Z,17.95
2024-05-09T16:37:58.021Z,17.82
2024-05-09T16:40:34.373Z,17.88
2024-05-09T16:43:06.264Z,17.91
2024-05-09T16:45:33.165Z,17.86
2024-05-09T16:48:00.265Z,17.74
2024-05-09T16:50:32.387Z,17.67
2024-05-09T16:53:00.977Z,17.54
2024-05-09T16:55:27.739Z,17.40
2024-05-09T16:57:54.633Z,17.32
2024-05-09T17:00:31.256Z,17.19
2024-05-09T17:03:06.416Z,17.06
2024-05-09T17:05:33.743Z,16.91
2024-05-09T17:08:00.598Z,16.99
2024-05-09T17:10:32.622Z,16.88
2024-05-09T17:13:01.428Z,16.83
2024-05-09T17:15:28.084Z,16.73
2024-05-09T17:17:54.686Z,16.60
2024-05-09T17:20:29.434Z,16.57
2024-05-09T17:23:00.330Z,16.44
2024-05-09T17:25:26.958Z,16.30
2024-05-09T17:27:53.569Z,16.27
2024-05-09T17:30:28.654Z,16.17
2024-05-09T17:33:00.942Z,16.18
2024-05-09T17:35:27.614Z,16.13
2024-05-09T17:37:54.132Z,16.08
2024-05-09T17:40:30.065Z,16.03
2024-05-09T17:43:00.222Z,16.04
2024-05-09T17:45:26.782Z,15.98
2024-05-09T17:47:53.666Z,15.96
2024-05-09T17:50:27.446Z,15.93
2024-05-09T17:53:00.569Z,15.65
2024-05-09T17:55:27.265Z,15.54
2024-05-09T17:57:53.936Z,15.49
2024-05-09T18:00:29.170Z,15.45
2024-05-09T18:03:03.739Z,15.34
2024-05-09T18:05:30.519Z,15.34
2024-05-09T18:07:57.265Z,15.28
2024-05-09T18:10:30.081Z,15.20
2024-05-09T18:13:02.493Z,15.21
2024-05-09T18:15:29.109Z,15.13
2024-05-09T18:17:55.907Z,15.17
2024-05-09T18:20:32.720Z,15.17
2024-05-09T18:23:07.460Z,15.15
2024-05-09T18:25:34.022Z,15.05
2024-05-09T18:28:02.077Z,15.04
2024-05-09T18:30:34.381Z,15.04
2024-05-09T18:33:03.196Z,15.16
2024-05-09T18:35:29.886Z,15.22
2024-05-09T18:37:56.401Z,15.21
2024-05-09T18:40:31.270Z,15.22
2024-05-09T18:43:01.876Z,15.14
2024-05-09T18:45:28.687Z,15.29
2024-05-09T18:47:55.667Z,15.23
2024-05-09T18:50:31.842Z,15.10
2024-05-09T18:53:02.504Z,15.18
2024-05-09T18:55:29.009Z,14.94
2024-05-09T18:57:55.572Z,14.86
2024-05-09T19:00:32.924Z,15.02
2024-05-09T19:03:03.118Z,15.14
2024-05-09T19:05:30.111Z,15.19
2024-05-09T19:07:56.826Z,15.17
2024-05-09T19:10:26.400Z,15.15
2024-05-09T19:12:58.779Z,15.00
2024-05-09T19:15:25.388Z,15.01
2024-05-09T19:17:52.022Z,15.00
2024-05-09T19:20:25.411Z,14.71
2024-05-09T19:22:58.359Z,14.72
2024-05-09T19:25:24.939Z,14.79
2024-05-09T19:27:51.575Z,14.82
2024-05-09T19:30:25.670Z,14.75
2024-05-09T19:33:01.176Z,14.66
2024-05-09T19:35:27.921Z,14.60
2024-05-09T19:37:54.470Z,14.59
2024-05-09T19:40:28.864Z,14.54
2024-05-09T19:42:58.608Z,14.44
2024-05-09T19:45:25.226Z,14.45
2024-05-09T19:47:51.923Z,14.40
2024-05-09T19:50:26.651Z,14.44
2024-05-09T19:52:59.327Z,14.45
2024-05-09T19:55:25.981Z,14.44
2024-05-09T19:57:52.631Z,14.47
2024-05-09T20:00:26.022Z,14.46
2024-05-09T20:02:56.146Z,14.46
2024-05-09T20:05:23.303Z,13.88
2024-05-09T20:07:50.181Z,13.79
2024-05-09T20:10:23.617Z,13.44
2024-05-09T20:12:53.279Z,12.99
2024-05-09T20:15:19.802Z,13.11
2024-05-09T20:17:46.405Z,13.50
2024-05-09T20:20:23.524Z,13.76
2024-05-09T20:22:55.250Z,13.75
2024-05-09T20:25:21.817Z,13.79
2024-05-09T20:27:48.373Z,13.56
2024-05-09T20:30:24.633Z,13.59
2024-05-09T20:32:55.374Z,13.59
2024-05-09T20:35:21.914Z,13.69
2024-05-09T20:37:48.425Z,13.63
2024-05-09T20:40:21.633Z,13.33
2024-05-09T20:42:55.341Z,13.44
2024-05-09T20:45:21.874Z,13.33
2024-05-09T20:47:49.546Z,13.00
2024-05-09T20:50:23.973Z,13.00
2024-05-09T20:52:59.280Z,12.69
2024-05-09T20:55:25.817Z,13.11
2024-05-09T20:57:52.470Z,13.44
2024-05-09T21:00:22.635Z,13.06
2024-05-09T21:02:56.343Z,12.83
2024-05-09T21:05:22.942Z,13.09
2024-05-09T21:07:49.514Z,13.10
2024-05-09T21:10:22.316Z,13.26
2024-05-09T21:12:49.431Z,13.44
2024-05-09T21:15:15.978Z,13.20
2024-05-09T21:17:42.554Z,13.15
2024-05-09T21:20:14.502Z,12.97
2024-05-09T21:22:44.222Z,13.11
2024-05-09T21:25:10.875Z,13.23
2024-05-09T21:27:37.541Z,13.12
2024-05-09T21:30:06.050Z,13.11
2024-05-09T21:32:34.332Z,12.80
2024-05-09T21:35:00.899Z,12.72
2024-05-09T21:37:27.399Z,13.02
2024-05-09T21:39:53.956Z,13.14
2024-05-09T21:42:20.499Z,13.19
2024-05-09T21:44:47.023Z,13.34
2024-05-09T21:47:13.571Z,13.26
2024-05-09T21:49:40.205Z,13.17
2024-05-09T21:52:06.775Z,13.14
2024-05-09T21:54:33.384Z,13.26
2024-05-09T21:56:59.911Z,12.72
2024-05-09T21:59:26.491Z,12.71
2024-05-09T22:01:53.098Z,12.96
2024-05-09T22:04:19.776Z,13.13
2024-05-09T22:06:46.401Z,13.23
2024-05-09T22:09:12.925Z,13.33
2024-05-09T22:11:39.473Z,13.47
2024-05-09T22:14:06.011Z,13.52
2024-05-09T22:16:32.577Z,13.59
2024-05-09T22:18:59.297Z,13.62
2024-05-09T22:21:25.874Z,13.34
2024-05-09T22:23:52.382Z,13.37
2024-05-09T22:26:18.891Z,13.36
2024-05-09T22:28:45.402Z,13.25
2024-05-09T22:31:11.974Z,13.15
2024-05-09T22:33:38.769Z,13.11
2024-05-09T22:36:07.316Z,13.29
2024-05-09T22:38:33.827Z,13.34
2024-05-09T22:41:00.522Z,13.46
2024-05-09T22:43:27.189Z,13.41
2024-05-09T22:45:53.902Z,13.43
2024-05-09T22:48:20.891Z,13.41
2024-05-09T22:50:47.565Z,13.34
2024-05-09T22:53:14.120Z,13.31
2024-05-09T22:55:40.718Z,13.27
2024-05-09T22:58:07.523Z,13.07
2024-05-09T23:00:34.252Z,12.93
2024-05-09T23:03:01.375Z,12.86
2024-05-09T23:05:28.475Z,12.61
2024-05-09T23:07:55.194Z,12.43
2024-05-09T23:10:28.256Z,12.41
2024-05-09T23:13:01.327Z,12.75
2024-05-09T23:15:28.061Z,12.91
2024-05-09T23:17:54.754Z,13.01
2024-05-09T23:20:30.087Z,13.08
2024-05-09T23:23:03.576Z,12.99
2024-05-09T23:25:30.210Z,13.05
2024-05-09T23:27:56.933Z,13.00
2024-05-09T23:30:33.208Z,13.05
2024-05-09T23:33:04.584Z,13.05
2024-05-09T23:35:31.218Z,12.97
2024-05-09T23:37:57.779Z,12.94
2024-05-09T23:40:34.658Z,12.82
2024-05-09T23:43:05.188Z,12.82
2024-05-09T23:45:31.748Z,12.87
2024-05-09T23:47:58.418Z,12.88
2024-05-09T23:50:33.224Z,12.96
2024-05-09T23:53:02.943Z,13.01
2024-05-09T23:55:30.010Z,13.06
2024-05-09T23:57:56.557Z,13.05
